sensor_id;sensor_type;location;lat;lon;timestamp;temperature;humidity
47576;DHT22;33304;52.456;13.328;2022-12-20T00:01:49;4.20;99.90
47576;DHT22;33304;52.456;13.328;2022-12-20T00:04:17;4.30;99.90
47576;DHT22;33304;52.456;13.328;2022-12-20T00:06:44;4.30;99.90
47576;DHT22;33304;52.456;13.328;2022-12-20T00:09:11;4.30;99.90
47576;DHT22;33304;52.456;13.328;2022-12-20T00:11:39;4.30;99.90
47576;DHT22;33304;52.456;13.328;2022-12-20T00:14:07;4.30;99.90
47576;DHT22;33304;52.456;13.328;2022-12-20T00:16:35;4.30;99.90
47576;DHT22;33304;52.456;13.328;2022-12-20T00:19:04;4.40;99.90
47576;DHT22;33304;52.456;13.328;2022-12-20T00:21:33;4.30;99.90
47576;DHT22;33304;52.456;13.328;2022-12-20T00:24:01;4.40;99.90
47576;DHT22;33304;52.456;13.328;2022-12-20T00:26:30;4.40;99.90
47576;DHT22;33304;52.456;13.328;2022-12-20T00:28:58;4.50;98.80
47576;DHT22;33304;52.456;13.328;2022-12-20T00:31:29;4.50;98.10
47576;DHT22;33304;52.456;13.328;2022-12-20T00:33:57;4.40;98.40
47576;DHT22;33304;52.456;13.328;2022-12-20T00:36:27;4.40;98.50
47576;DHT22;33304;52.456;13.328;2022-12-20T00:38:57;4.40;98.40
47576;DHT22;33304;52.456;13.328;2022-12-20T00:41:26;4.40;97.40
47576;DHT22;33304;52.456;13.328;2022-12-20T00:43:54;4.50;97.00
47576;DHT22;33304;52.456;13.328;2022-12-20T00:46:23;4.50;96.20
47576;DHT22;33304;52.456;13.328;2022-12-20T00:48:51;4.60;96.00
47576;DHT22;33304;52.456;13.328;2022-12-20T00:51:21;4.50;93.90
47576;DHT22;33304;52.456;13.328;2022-12-20T00:53:48;4.50;94.60
47576;DHT22;33304;52.456;13.328;2022-12-20T00:56:18;4.60;94.50
47576;DHT22;33304;52.456;13.328;2022-12-20T00:58:45;4.60;93.80
47576;DHT22;33304;52.456;13.328;2022-12-20T01:01:18;4.50;93.00
47576;DHT22;33304;52.456;13.328;2022-12-20T01:03:47;4.60;92.80
47576;DHT22;33304;52.456;13.328;2022-12-20T01:06:14;4.60;92.50
47576;DHT22;33304;52.456;13.328;2022-12-20T01:08:42;4.60;92.40
47576;DHT22;33304;52.456;13.328;2022-12-20T01:11:13;4.60;91.20
47576;DHT22;33304;52.456;13.328;2022-12-20T01:13:43;4.60;91.20
47576;DHT22;33304;52.456;13.328;2022-12-20T01:16:18;4.60;91.20
47576;DHT22;33304;52.456;13.328;2022-12-20T01:18:46;4.70;90.00
47576;DHT22;33304;52.456;13.328;2022-12-20T01:21:15;4.70;87.80
47576;DHT22;33304;52.456;13.328;2022-12-20T01:23:43;4.70;87.60
47576;DHT22;33304;52.456;13.328;2022-12-20T01:26:12;4.80;86.60
47576;DHT22;33304;52.456;13.328;2022-12-20T01:28:42;4.80;82.80
47576;DHT22;33304;52.456;13.328;2022-12-20T01:31:12;4.90;82.90
47576;DHT22;33304;52.456;13.328;2022-12-20T01:33:39;4.90;82.10
47576;DHT22;33304;52.456;13.328;2022-12-20T01:36:10;4.90;81.80
47576;DHT22;33304;52.456;13.328;2022-12-20T01:38:37;4.90;82.10
47576;DHT22;33304;52.456;13.328;2022-12-20T01:41:05;4.90;81.20
47576;DHT22;33304;52.456;13.328;2022-12-20T01:43:48;4.90;80.40
47576;DHT22;33304;52.456;13.328;2022-12-20T01:46:16;5.00;78.80
47576;DHT22;33304;52.456;13.328;2022-12-20T01:48:47;4.90;78.70
47576;DHT22;33304;52.456;13.328;2022-12-20T01:51:16;5.00;80.00
47576;DHT22;33304;52.456;13.328;2022-12-20T01:53:44;5.00;78.90
47576;DHT22;33304;52.456;13.328;2022-12-20T01:56:11;5.00;77.90
47576;DHT22;33304;52.456;13.328;2022-12-20T01:58:39;5.00;77.10
47576;DHT22;33304;52.456;13.328;2022-12-20T02:01:08;5.00;76.70
47576;DHT22;33304;52.456;13.328;2022-12-20T02:03:36;5.00;77.90
47576;DHT22;33304;52.456;13.328;2022-12-20T02:06:14;5.00;77.00
47576;DHT22;33304;52.456;13.328;2022-12-20T02:08:42;4.90;77.40
47576;DHT22;33304;52.456;13.328;2022-12-20T02:11:23;4.90;77.80
47576;DHT22;33304;52.456;13.328;2022-12-20T02:14:03;5.00;76.50
47576;DHT22;33304;52.456;13.328;2022-12-20T02:16:38;5.00;76.70
47576;DHT22;33304;52.456;13.328;2022-12-20T02:19:14;5.00;76.90
47576;DHT22;33304;52.456;13.328;2022-12-20T02:21:47;5.00;76.90
47576;DHT22;33304;52.456;13.328;2022-12-20T02:24:31;4.90;77.50
47576;DHT22;33304;52.456;13.328;2022-12-20T02:27:23;4.90;76.20
47576;DHT22;33304;52.456;13.328;2022-12-20T02:30:15;4.90;77.10
47576;DHT22;33304;52.456;13.328;2022-12-20T02:32:48;5.00;76.80
47576;DHT22;33304;52.456;13.328;2022-12-20T02:35:20;5.00;77.70
47576;DHT22;33304;52.456;13.328;2022-12-20T02:37:49;5.00;75.70
47576;DHT22;33304;52.456;13.328;2022-12-20T02:40:21;5.10;76.00
47576;DHT22;33304;52.456;13.328;2022-12-20T02:42:53;5.10;75.60
47576;DHT22;33304;52.456;13.328;2022-12-20T02:45:25;5.10;75.20
47576;DHT22;33304;52.456;13.328;2022-12-20T02:47:55;5.00;76.10
47576;DHT22;33304;52.456;13.328;2022-12-20T02:50:26;5.00;75.50
47576;DHT22;33304;52.456;13.328;2022-12-20T02:52:54;5.00;76.50
47576;DHT22;33304;52.456;13.328;2022-12-20T02:55:30;5.10;75.20
47576;DHT22;33304;52.456;13.328;2022-12-20T02:58:04;5.00;74.80
47576;DHT22;33304;52.456;13.328;2022-12-20T03:00:37;5.20;74.00
47576;DHT22;33304;52.456;13.328;2022-12-20T03:03:06;5.10;72.80
47576;DHT22;33304;52.456;13.328;2022-12-20T03:05:50;5.10;72.80
47576;DHT22;33304;52.456;13.328;2022-12-20T03:08:18;5.10;72.80
47576;DHT22;33304;52.456;13.328;2022-12-20T03:10:46;5.10;72.80
47576;DHT22;33304;52.456;13.328;2022-12-20T03:13:13;5.10;72.80
47576;DHT22;33304;52.456;13.328;2022-12-20T03:15:49;5.10;72.80
47576;DHT22;33304;52.456;13.328;2022-12-20T03:18:16;5.10;72.80
47576;DHT22;33304;52.456;13.328;2022-12-20T03:20:43;5.30;73.00
47576;DHT22;33304;52.456;13.328;2022-12-20T03:23:10;5.20;72.90
47576;DHT22;33304;52.456;13.328;2022-12-20T03:25:38;5.20;72.90
47576;DHT22;33304;52.456;13.328;2022-12-20T03:28:07;5.20;72.90
47576;DHT22;33304;52.456;13.328;2022-12-20T03:30:34;5.20;72.90
47576;DHT22;33304;52.456;13.328;2022-12-20T03:33:02;5.20;72.90
47576;DHT22;33304;52.456;13.328;2022-12-20T03:35:30;5.30;73.00
47576;DHT22;33304;52.456;13.328;2022-12-20T03:37:57;5.40;70.70
47576;DHT22;33304;52.456;13.328;2022-12-20T03:40:25;5.30;69.80
47576;DHT22;33304;52.456;13.328;2022-12-20T03:42:53;5.30;70.10
47576;DHT22;33304;52.456;13.328;2022-12-20T03:45:20;5.20;69.80
47576;DHT22;33304;52.456;13.328;2022-12-20T03:47:48;5.30;70.40
47576;DHT22;33304;52.456;13.328;2022-12-20T03:50:16;5.30;70.00
47576;DHT22;33304;52.456;13.328;2022-12-20T03:52:43;5.30;70.10
47576;DHT22;33304;52.456;13.328;2022-12-20T03:55:11;5.30;69.00
47576;DHT22;33304;52.456;13.328;2022-12-20T03:57:40;5.30;68.80
47576;DHT22;33304;52.456;13.328;2022-12-20T04:00:21;5.40;67.80
47576;DHT22;33304;52.456;13.328;2022-12-20T04:02:53;5.40;67.20
47576;DHT22;33304;52.456;13.328;2022-12-20T04:05:23;5.40;67.70
47576;DHT22;33304;52.456;13.328;2022-12-20T04:07:50;5.40;67.80
47576;DHT22;33304;52.456;13.328;2022-12-20T04:10:17;5.40;67.70
47576;DHT22;33304;52.456;13.328;2022-12-20T04:12:44;5.50;67.10
47576;DHT22;33304;52.456;13.328;2022-12-20T04:15:14;5.50;66.50
47576;DHT22;33304;52.456;13.328;2022-12-20T04:17:42;5.40;66.20
47576;DHT22;33304;52.456;13.328;2022-12-20T04:20:13;5.40;67.20
47576;DHT22;33304;52.456;13.328;2022-12-20T04:23:02;5.40;67.70
47576;DHT22;33304;52.456;13.328;2022-12-20T04:25:29;5.50;67.80
47576;DHT22;33304;52.456;13.328;2022-12-20T04:27:56;5.40;67.70
47576;DHT22;33304;52.456;13.328;2022-12-20T04:30:23;5.50;67.10
47576;DHT22;33304;52.456;13.328;2022-12-20T04:32:51;5.40;66.80
47576;DHT22;33304;52.456;13.328;2022-12-20T04:35:20;5.50;66.90
47576;DHT22;33304;52.456;13.328;2022-12-20T04:37:47;5.40;67.30
47576;DHT22;33304;52.456;13.328;2022-12-20T04:40:16;5.30;68.10
47576;DHT22;33304;52.456;13.328;2022-12-20T04:42:50;5.30;69.80
47576;DHT22;33304;52.456;13.328;2022-12-20T04:45:18;5.20;70.00
47576;DHT22;33304;52.456;13.328;2022-12-20T04:47:45;5.20;71.00
47576;DHT22;33304;52.456;13.328;2022-12-20T04:50:16;5.30;69.90
47576;DHT22;33304;52.456;13.328;2022-12-20T04:52:43;5.30;69.10
47576;DHT22;33304;52.456;13.328;2022-12-20T04:55:30;5.20;70.20
47576;DHT22;33304;52.456;13.328;2022-12-20T04:58:02;5.10;70.60
47576;DHT22;33304;52.456;13.328;2022-12-20T05:00:29;5.00;71.80
47576;DHT22;33304;52.456;13.328;2022-12-20T05:03:03;5.10;72.80
47576;DHT22;33304;52.456;13.328;2022-12-20T05:05:30;5.00;72.70
47576;DHT22;33304;52.456;13.328;2022-12-20T05:07:58;5.00;72.70
47576;DHT22;33304;52.456;13.328;2022-12-20T05:10:27;5.10;72.40
47576;DHT22;33304;52.456;13.328;2022-12-20T05:12:58;5.00;72.70
47576;DHT22;33304;52.456;13.328;2022-12-20T05:15:35;5.00;72.70
47576;DHT22;33304;52.456;13.328;2022-12-20T05:18:02;5.00;72.70
47576;DHT22;33304;52.456;13.328;2022-12-20T05:20:40;5.00;72.70
47576;DHT22;33304;52.456;13.328;2022-12-20T05:23:09;5.00;72.70
47576;DHT22;33304;52.456;13.328;2022-12-20T05:26:03;5.00;72.70
47576;DHT22;33304;52.456;13.328;2022-12-20T05:28:48;5.10;73.20
47576;DHT22;33304;52.456;13.328;2022-12-20T05:31:15;5.20;72.30
47576;DHT22;33304;52.456;13.328;2022-12-20T05:33:42;5.10;71.90
47576;DHT22;33304;52.456;13.328;2022-12-20T05:36:10;5.10;71.70
47576;DHT22;33304;52.456;13.328;2022-12-20T05:38:37;5.10;71.60
47576;DHT22;33304;52.456;13.328;2022-12-20T05:41:11;5.10;71.60
47576;DHT22;33304;52.456;13.328;2022-12-20T05:43:39;5.20;71.40
47576;DHT22;33304;52.456;13.328;2022-12-20T05:46:09;5.20;71.30
47576;DHT22;33304;52.456;13.328;2022-12-20T05:48:49;5.30;72.30
47576;DHT22;33304;52.456;13.328;2022-12-20T05:51:16;5.30;70.30
47576;DHT22;33304;52.456;13.328;2022-12-20T05:53:53;5.30;70.10
47576;DHT22;33304;52.456;13.328;2022-12-20T05:56:29;5.40;70.90
47576;DHT22;33304;52.456;13.328;2022-12-20T05:58:57;5.40;70.70
47576;DHT22;33304;52.456;13.328;2022-12-20T06:01:26;5.50;70.10
47576;DHT22;33304;52.456;13.328;2022-12-20T06:03:57;5.50;71.00
47576;DHT22;33304;52.456;13.328;2022-12-20T06:06:25;5.50;71.60
47576;DHT22;33304;52.456;13.328;2022-12-20T06:08:54;5.60;70.90
47576;DHT22;33304;52.456;13.328;2022-12-20T06:11:38;5.60;71.40
47576;DHT22;33304;52.456;13.328;2022-12-20T06:14:09;5.60;71.50
47576;DHT22;33304;52.456;13.328;2022-12-20T06:16:41;5.60;71.90
47576;DHT22;33304;52.456;13.328;2022-12-20T06:19:09;5.60;73.20
47576;DHT22;33304;52.456;13.328;2022-12-20T06:21:38;5.60;74.70
47576;DHT22;33304;52.456;13.328;2022-12-20T06:24:05;5.70;75.30
47576;DHT22;33304;52.456;13.328;2022-12-20T06:26:35;5.60;77.40
47576;DHT22;33304;52.456;13.328;2022-12-20T06:29:04;5.50;81.90
47576;DHT22;33304;52.456;13.328;2022-12-20T06:31:42;5.60;85.50
47576;DHT22;33304;52.456;13.328;2022-12-20T06:34:10;5.60;89.60
47576;DHT22;33304;52.456;13.328;2022-12-20T06:36:40;5.50;92.30
47576;DHT22;33304;52.456;13.328;2022-12-20T06:39:12;5.50;99.00
47576;DHT22;33304;52.456;13.328;2022-12-20T06:41:47;5.40;99.90
47576;DHT22;33304;52.456;13.328;2022-12-20T06:44:15;5.50;99.90
47576;DHT22;33304;52.456;13.328;2022-12-20T06:46:43;5.40;99.90
47576;DHT22;33304;52.456;13.328;2022-12-20T06:49:10;5.40;99.90
47576;DHT22;33304;52.456;13.328;2022-12-20T06:51:37;5.40;99.90
47576;DHT22;33304;52.456;13.328;2022-12-20T06:54:05;5.40;99.90
47576;DHT22;33304;52.456;13.328;2022-12-20T06:56:34;5.40;99.90
47576;DHT22;33304;52.456;13.328;2022-12-20T06:59:04;5.50;99.90
47576;DHT22;33304;52.456;13.328;2022-12-20T07:01:31;5.50;99.90
47576;DHT22;33304;52.456;13.328;2022-12-20T07:03:59;5.60;99.90
47576;DHT22;33304;52.456;13.328;2022-12-20T07:06:27;5.60;99.90
47576;DHT22;33304;52.456;13.328;2022-12-20T07:08:55;5.60;99.90
47576;DHT22;33304;52.456;13.328;2022-12-20T07:11:22;5.60;99.90
47576;DHT22;33304;52.456;13.328;2022-12-20T07:13:53;5.60;99.90
47576;DHT22;33304;52.456;13.328;2022-12-20T07:16:21;5.70;99.90
47576;DHT22;33304;52.456;13.328;2022-12-20T07:18:48;5.60;99.90
47576;DHT22;33304;52.456;13.328;2022-12-20T07:21:17;5.70;99.90
47576;DHT22;33304;52.456;13.328;2022-12-20T07:23:44;5.70;99.90
47576;DHT22;33304;52.456;13.328;2022-12-20T07:26:12;5.80;99.90
47576;DHT22;33304;52.456;13.328;2022-12-20T07:28:40;5.80;99.90
47576;DHT22;33304;52.456;13.328;2022-12-20T07:31:08;5.90;99.90
47576;DHT22;33304;52.456;13.328;2022-12-20T07:33:35;5.80;99.90
47576;DHT22;33304;52.456;13.328;2022-12-20T07:36:05;5.90;99.90
47576;DHT22;33304;52.456;13.328;2022-12-20T07:38:34;5.90;99.90
47576;DHT22;33304;52.456;13.328;2022-12-20T07:41:06;5.90;99.90
47576;DHT22;33304;52.456;13.328;2022-12-20T07:43:34;5.90;99.90
47576;DHT22;33304;52.456;13.328;2022-12-20T07:46:02;6.00;99.90
47576;DHT22;33304;52.456;13.328;2022-12-20T07:48:29;6.00;99.90
47576;DHT22;33304;52.456;13.328;2022-12-20T07:50:59;6.00;99.90
47576;DHT22;33304;52.456;13.328;2022-12-20T07:53:27;6.00;99.90
47576;DHT22;33304;52.456;13.328;2022-12-20T07:56:00;6.00;99.90
47576;DHT22;33304;52.456;13.328;2022-12-20T07:58:29;5.90;99.90
47576;DHT22;33304;52.456;13.328;2022-12-20T08:00:57;5.90;99.90
47576;DHT22;33304;52.456;13.328;2022-12-20T08:03:29;5.90;99.90
47576;DHT22;33304;52.456;13.328;2022-12-20T08:05:59;6.00;99.90
47576;DHT22;33304;52.456;13.328;2022-12-20T08:08:29;6.00;99.90
47576;DHT22;33304;52.456;13.328;2022-12-20T08:10:59;6.00;99.90
47576;DHT22;33304;52.456;13.328;2022-12-20T08:13:27;6.00;99.90
47576;DHT22;33304;52.456;13.328;2022-12-20T08:15:54;6.00;99.90
47576;DHT22;33304;52.456;13.328;2022-12-20T08:18:21;5.90;99.90
47576;DHT22;33304;52.456;13.328;2022-12-20T08:20:48;5.90;99.90
47576;DHT22;33304;52.456;13.328;2022-12-20T08:23:15;6.00;99.90
47576;DHT22;33304;52.456;13.328;2022-12-20T08:25:43;6.00;99.90
47576;DHT22;33304;52.456;13.328;2022-12-20T08:28:12;6.00;99.90
47576;DHT22;33304;52.456;13.328;2022-12-20T08:30:39;6.10;99.90
47576;DHT22;33304;52.456;13.328;2022-12-20T08:33:06;6.00;99.90
47576;DHT22;33304;52.456;13.328;2022-12-20T08:35:33;6.10;99.90
47576;DHT22;33304;52.456;13.328;2022-12-20T08:38:00;6.10;99.90
47576;DHT22;33304;52.456;13.328;2022-12-20T08:40:27;6.10;99.90
47576;DHT22;33304;52.456;13.328;2022-12-20T08:42:54;6.10;99.90
47576;DHT22;33304;52.456;13.328;2022-12-20T08:45:22;6.10;99.90
47576;DHT22;33304;52.456;13.328;2022-12-20T08:47:49;6.10;99.90
47576;DHT22;33304;52.456;13.328;2022-12-20T08:50:17;6.10;99.90
47576;DHT22;33304;52.456;13.328;2022-12-20T08:52:44;6.20;99.90
47576;DHT22;33304;52.456;13.328;2022-12-20T08:55:11;6.20;99.90
47576;DHT22;33304;52.456;13.328;2022-12-20T08:57:38;6.20;99.90
47576;DHT22;33304;52.456;13.328;2022-12-20T09:00:06;6.20;99.90
47576;DHT22;33304;52.456;13.328;2022-12-20T09:02:35;6.30;99.90
47576;DHT22;33304;52.456;13.328;2022-12-20T09:05:03;6.40;99.90
47576;DHT22;33304;52.456;13.328;2022-12-20T09:07:31;6.30;99.90
47576;DHT22;33304;52.456;13.328;2022-12-20T09:09:58;6.40;99.90
47576;DHT22;33304;52.456;13.328;2022-12-20T09:12:25;6.40;99.90
47576;DHT22;33304;52.456;13.328;2022-12-20T09:14:52;6.40;99.90
47576;DHT22;33304;52.456;13.328;2022-12-20T09:17:19;6.40;99.90
47576;DHT22;33304;52.456;13.328;2022-12-20T09:19:47;6.50;99.90
47576;DHT22;33304;52.456;13.328;2022-12-20T09:22:14;6.50;99.90
47576;DHT22;33304;52.456;13.328;2022-12-20T09:24:42;6.50;99.90
47576;DHT22;33304;52.456;13.328;2022-12-20T09:27:09;6.60;99.90
47576;DHT22;33304;52.456;13.328;2022-12-20T09:29:36;6.60;99.90
47576;DHT22;33304;52.456;13.328;2022-12-20T09:32:04;6.80;99.90
47576;DHT22;33304;52.456;13.328;2022-12-20T09:34:31;6.80;99.90
47576;DHT22;33304;52.456;13.328;2022-12-20T09:37:00;6.80;99.90
47576;DHT22;33304;52.456;13.328;2022-12-20T09:39:27;6.90;99.90
47576;DHT22;33304;52.456;13.328;2022-12-20T09:41:54;7.00;99.90
47576;DHT22;33304;52.456;13.328;2022-12-20T09:44:25;7.00;99.90
47576;DHT22;33304;52.456;13.328;2022-12-20T09:46:55;7.10;99.90
47576;DHT22;33304;52.456;13.328;2022-12-20T09:49:27;7.20;99.90
47576;DHT22;33304;52.456;13.328;2022-12-20T09:52:10;7.30;99.90
47576;DHT22;33304;52.456;13.328;2022-12-20T09:54:47;7.40;99.90
47576;DHT22;33304;52.456;13.328;2022-12-20T09:57:25;7.30;99.90
47576;DHT22;33304;52.456;13.328;2022-12-20T09:59:55;7.40;99.90
47576;DHT22;33304;52.456;13.328;2022-12-20T10:02:24;7.40;99.90
47576;DHT22;33304;52.456;13.328;2022-12-20T10:04:52;7.40;99.90
47576;DHT22;33304;52.456;13.328;2022-12-20T10:07:31;7.50;99.90
47576;DHT22;33304;52.456;13.328;2022-12-20T10:10:23;7.70;99.90
47576;DHT22;33304;52.456;13.328;2022-12-20T10:13:00;7.80;96.80
47576;DHT22;33304;52.456;13.328;2022-12-20T10:15:34;7.80;90.40
47576;DHT22;33304;52.456;13.328;2022-12-20T10:18:20;7.80;90.50
47576;DHT22;33304;52.456;13.328;2022-12-20T10:20:56;7.80;89.30
47576;DHT22;33304;52.456;13.328;2022-12-20T10:23:34;7.80;90.20
47576;DHT22;33304;52.456;13.328;2022-12-20T10:26:08;7.90;89.50
47576;DHT22;33304;52.456;13.328;2022-12-20T10:28:36;7.90;89.80
47576;DHT22;33304;52.456;13.328;2022-12-20T10:31:07;7.80;87.30
47576;DHT22;33304;52.456;13.328;2022-12-20T10:33:37;7.70;85.70
47576;DHT22;33304;52.456;13.328;2022-12-20T10:36:17;7.80;87.10
47576;DHT22;33304;52.456;13.328;2022-12-20T10:38:48;7.80;87.00
47576;DHT22;33304;52.456;13.328;2022-12-20T10:41:17;7.90;87.80
47576;DHT22;33304;52.456;13.328;2022-12-20T10:43:48;7.80;85.40
47576;DHT22;33304;52.456;13.328;2022-12-20T10:46:17;7.90;85.20
47576;DHT22;33304;52.456;13.328;2022-12-20T10:48:46;8.00;84.40
47576;DHT22;33304;52.456;13.328;2022-12-20T10:51:16;8.00;81.00
47576;DHT22;33304;52.456;13.328;2022-12-20T10:53:54;8.10;80.60
47576;DHT22;33304;52.456;13.328;2022-12-20T10:56:23;8.10;77.50
47576;DHT22;33304;52.456;13.328;2022-12-20T10:58:57;8.10;77.20
47576;DHT22;33304;52.456;13.328;2022-12-20T11:01:27;8.10;77.70
47576;DHT22;33304;52.456;13.328;2022-12-20T11:03:58;8.20;75.80
47576;DHT22;33304;52.456;13.328;2022-12-20T11:06:38;8.20;75.50
47576;DHT22;33304;52.456;13.328;2022-12-20T11:09:26;8.30;73.80
47576;DHT22;33304;52.456;13.328;2022-12-20T11:11:58;8.20;74.20
47576;DHT22;33304;52.456;13.328;2022-12-20T11:14:26;8.20;73.10
47576;DHT22;33304;52.456;13.328;2022-12-20T11:16:55;8.20;71.60
47576;DHT22;33304;52.456;13.328;2022-12-20T11:19:33;8.20;72.10
47576;DHT22;33304;52.456;13.328;2022-12-20T11:22:07;8.20;72.70
47576;DHT22;33304;52.456;13.328;2022-12-20T11:24:48;8.30;71.20
47576;DHT22;33304;52.456;13.328;2022-12-20T11:27:23;8.30;70.40
47576;DHT22;33304;52.456;13.328;2022-12-20T11:30:05;8.20;70.20
47576;DHT22;33304;52.456;13.328;2022-12-20T11:33:03;8.20;68.90
47576;DHT22;33304;52.456;13.328;2022-12-20T11:35:40;8.20;69.30
47576;DHT22;33304;52.456;13.328;2022-12-20T11:38:21;8.20;70.20
47576;DHT22;33304;52.456;13.328;2022-12-20T11:40:54;8.20;68.20
47576;DHT22;33304;52.456;13.328;2022-12-20T11:43:47;8.30;68.00
47576;DHT22;33304;52.456;13.328;2022-12-20T11:46:29;8.40;67.10
47576;DHT22;33304;52.456;13.328;2022-12-20T11:49:10;8.30;66.60
47576;DHT22;33304;52.456;13.328;2022-12-20T11:51:42;8.30;66.60
47576;DHT22;33304;52.456;13.328;2022-12-20T11:54:16;8.40;66.40
47576;DHT22;33304;52.456;13.328;2022-12-20T11:56:47;8.40;66.10
47576;DHT22;33304;52.456;13.328;2022-12-20T11:59:19;8.50;65.00
47576;DHT22;33304;52.456;13.328;2022-12-20T12:01:52;8.50;65.00
47576;DHT22;33304;52.456;13.328;2022-12-20T12:04:25;8.50;65.10
47576;DHT22;33304;52.456;13.328;2022-12-20T12:06:58;8.50;65.00
47576;DHT22;33304;52.456;13.328;2022-12-20T12:09:29;8.60;64.10
47576;DHT22;33304;52.456;13.328;2022-12-20T12:12:02;8.70;63.90
47576;DHT22;33304;52.456;13.328;2022-12-20T12:14:44;8.70;62.30
47576;DHT22;33304;52.456;13.328;2022-12-20T12:17:17;8.70;63.40
47576;DHT22;33304;52.456;13.328;2022-12-20T12:19:49;8.70;62.80
47576;DHT22;33304;52.456;13.328;2022-12-20T12:22:21;8.80;62.00
47576;DHT22;33304;52.456;13.328;2022-12-20T12:24:53;8.80;62.90
47576;DHT22;33304;52.456;13.328;2022-12-20T12:27:26;8.70;63.30
47576;DHT22;33304;52.456;13.328;2022-12-20T12:29:54;8.80;63.10
47576;DHT22;33304;52.456;13.328;2022-12-20T12:32:27;8.80;62.90
47576;DHT22;33304;52.456;13.328;2022-12-20T12:35:09;8.70;62.30
47576;DHT22;33304;52.456;13.328;2022-12-20T12:37:53;8.70;63.10
47576;DHT22;33304;52.456;13.328;2022-12-20T12:40:42;8.70;63.20
47576;DHT22;33304;52.456;13.328;2022-12-20T12:43:29;8.70;63.00
47576;DHT22;33304;52.456;13.328;2022-12-20T12:46:10;8.70;62.60
47576;DHT22;33304;52.456;13.328;2022-12-20T12:48:40;8.60;63.10
47576;DHT22;33304;52.456;13.328;2022-12-20T12:51:10;8.60;62.70
47576;DHT22;33304;52.456;13.328;2022-12-20T12:53:42;8.60;63.10
47576;DHT22;33304;52.456;13.328;2022-12-20T12:56:29;8.50;62.80
47576;DHT22;33304;52.456;13.328;2022-12-20T13:02:33;8.70;62.40
47576;DHT22;33304;52.456;13.328;2022-12-20T13:05:35;8.60;62.10
47576;DHT22;33304;52.456;13.328;2022-12-20T13:08:02;8.60;62.20
47576;DHT22;33304;52.456;13.328;2022-12-20T13:13:34;8.50;61.60
47576;DHT22;33304;52.456;13.328;2022-12-20T13:16:10;8.40;60.40
47576;DHT22;33304;52.456;13.328;2022-12-20T13:18:37;8.30;60.60
47576;DHT22;33304;52.456;13.328;2022-12-20T13:21:29;8.20;61.60
47576;DHT22;33304;52.456;13.328;2022-12-20T13:27:34;8.10;61.10
47576;DHT22;33304;52.456;13.328;2022-12-20T13:36:04;8.00;59.70
47576;DHT22;33304;52.456;13.328;2022-12-20T13:38:57;8.10;59.20
47576;DHT22;33304;52.456;13.328;2022-12-20T13:41:33;8.10;58.60
47576;DHT22;33304;52.456;13.328;2022-12-20T13:44:30;8.10;58.40
47576;DHT22;33304;52.456;13.328;2022-12-20T13:47:06;8.00;58.40
47576;DHT22;33304;52.456;13.328;2022-12-20T13:49:39;8.00;58.00
47576;DHT22;33304;52.456;13.328;2022-12-20T13:52:23;8.00;58.00
47576;DHT22;33304;52.456;13.328;2022-12-20T13:54:56;8.00;57.70
47576;DHT22;33304;52.456;13.328;2022-12-20T13:57:28;8.00;57.90
47576;DHT22;33304;52.456;13.328;2022-12-20T13:59:58;8.00;57.60
47576;DHT22;33304;52.456;13.328;2022-12-20T14:02:29;7.90;57.60
47576;DHT22;33304;52.456;13.328;2022-12-20T14:04:59;7.90;57.70
47576;DHT22;33304;52.456;13.328;2022-12-20T14:07:28;7.90;56.60
47576;DHT22;33304;52.456;13.328;2022-12-20T14:10:01;7.90;56.10
47576;DHT22;33304;52.456;13.328;2022-12-20T14:12:29;7.90;55.40
47576;DHT22;33304;52.456;13.328;2022-12-20T14:14:57;7.90;55.10
47576;DHT22;33304;52.456;13.328;2022-12-20T14:17:26;8.00;54.60
47576;DHT22;33304;52.456;13.328;2022-12-20T14:20:06;7.90;54.50
47576;DHT22;33304;52.456;13.328;2022-12-20T14:22:33;7.90;53.60
47576;DHT22;33304;52.456;13.328;2022-12-20T14:25:05;7.90;53.60
47576;DHT22;33304;52.456;13.328;2022-12-20T14:27:35;7.80;54.00
47576;DHT22;33304;52.456;13.328;2022-12-20T14:30:04;7.70;54.80
47576;DHT22;33304;52.456;13.328;2022-12-20T14:32:32;7.70;54.40
47576;DHT22;33304;52.456;13.328;2022-12-20T14:34:59;7.70;54.50
47576;DHT22;33304;52.456;13.328;2022-12-20T14:37:29;7.60;54.40
47576;DHT22;33304;52.456;13.328;2022-12-20T14:39:59;7.60;55.00
47576;DHT22;33304;52.456;13.328;2022-12-20T14:42:32;7.50;54.90
47576;DHT22;33304;52.456;13.328;2022-12-20T14:45:16;7.50;54.90
47576;DHT22;33304;52.456;13.328;2022-12-20T14:47:49;7.40;54.70
47576;DHT22;33304;52.456;13.328;2022-12-20T14:50:18;7.40;54.30
47576;DHT22;33304;52.456;13.328;2022-12-20T14:52:46;7.40;54.60
47576;DHT22;33304;52.456;13.328;2022-12-20T14:55:16;7.30;54.90
47576;DHT22;33304;52.456;13.328;2022-12-20T14:57:47;7.40;53.90
47576;DHT22;33304;52.456;13.328;2022-12-20T15:00:21;7.30;54.00
47576;DHT22;33304;52.456;13.328;2022-12-20T15:02:51;7.30;54.70
47576;DHT22;33304;52.456;13.328;2022-12-20T15:05:41;7.30;54.30
47576;DHT22;33304;52.456;13.328;2022-12-20T15:08:11;7.30;53.10
47576;DHT22;33304;52.456;13.328;2022-12-20T15:10:40;7.20;53.70
47576;DHT22;33304;52.456;13.328;2022-12-20T15:13:13;7.20;53.30
47576;DHT22;33304;52.456;13.328;2022-12-20T15:15:41;7.20;53.00
47576;DHT22;33304;52.456;13.328;2022-12-20T15:18:11;7.10;52.90
47576;DHT22;33304;52.456;13.328;2022-12-20T15:20:39;7.10;53.60
47576;DHT22;33304;52.456;13.328;2022-12-20T15:23:12;7.10;53.40
47576;DHT22;33304;52.456;13.328;2022-12-20T15:25:41;7.00;52.80
47576;DHT22;33304;52.456;13.328;2022-12-20T15:28:19;7.10;54.20
47576;DHT22;33304;52.456;13.328;2022-12-20T15:30:47;7.10;52.90
47576;DHT22;33304;52.456;13.328;2022-12-20T15:33:20;7.00;53.60
47576;DHT22;33304;52.456;13.328;2022-12-20T15:35:48;7.00;54.10
47576;DHT22;33304;52.456;13.328;2022-12-20T15:38:18;6.90;54.80
47576;DHT22;33304;52.456;13.328;2022-12-20T15:40:46;6.80;55.40
47576;DHT22;33304;52.456;13.328;2022-12-20T15:43:17;6.80;55.60
47576;DHT22;33304;52.456;13.328;2022-12-20T15:45:46;6.80;55.60
47576;DHT22;33304;52.456;13.328;2022-12-20T15:48:16;6.80;56.20
47576;DHT22;33304;52.456;13.328;2022-12-20T15:50:48;6.80;56.10
47576;DHT22;33304;52.456;13.328;2022-12-20T15:53:18;6.80;56.50
47576;DHT22;33304;52.456;13.328;2022-12-20T15:55:49;6.80;56.50
47576;DHT22;33304;52.456;13.328;2022-12-20T15:58:18;6.70;56.60
47576;DHT22;33304;52.456;13.328;2022-12-20T16:00:45;6.70;58.00
47576;DHT22;33304;52.456;13.328;2022-12-20T16:03:14;6.70;57.50
47576;DHT22;33304;52.456;13.328;2022-12-20T16:05:42;6.70;57.40
47576;DHT22;33304;52.456;13.328;2022-12-20T16:08:09;6.70;57.40
47576;DHT22;33304;52.456;13.328;2022-12-20T16:10:36;6.70;56.90
47576;DHT22;33304;52.456;13.328;2022-12-20T16:13:03;6.70;56.60